createdAt,value
2022-08-05T00:00:50.261Z,121.97
2022-08-05T00:03:17.551Z,105.18
2022-08-05T00:06:05.365Z,123.30
2022-08-05T00:08:35.725Z,104.05
2022-08-05T00:11:07.491Z,143.15
2022-08-05T00:13:52.859Z,95.90
2022-08-05T00:16:35.506Z,134.82
2022-08-05T00:19:04.766Z,123.30
2022-08-05T00:21:35.657Z,128.38
2022-08-05T00:24:10.248Z,107.75
2022-08-05T00:26:39.397Z,126.28
2022-08-05T00:29:18.945Z,113.57
2022-08-05T00:32:11.078Z,137.80
2022-08-05T00:34:54.967Z,133.05
2022-08-05T00:37:24.517Z,155.32
2022-08-05T00:39:57.884Z,137.52
2022-08-05T00:42:35.360Z,130.10
2022-08-05T00:45:08.546Z,131.10
2022-08-05T00:47:56.570Z,130.77
2022-08-05T00:50:25.964Z,131.23
2022-08-05T00:54:00.547Z,140.20
2022-08-05T00:56:22.972Z,132.63
2022-08-05T00:58:51.684Z,153.43
2022-08-05T01:01:42.019Z,142.52
2022-08-05T01:04:13.686Z,120.15
2022-08-05T01:06:41.659Z,148.05
2022-08-05T01:09:14.016Z,153.68
2022-08-05T01:11:43.996Z,174.25
2022-08-05T01:14:28.370Z,159.85
2022-08-05T01:17:02.028Z,133.32
2022-08-05T01:19:56.373Z,145.90
2022-08-05T01:22:47.514Z,139.18
2022-08-05T01:25:40.118Z,176.13
2022-08-05T01:28:30.153Z,147.02
2022-08-05T01:31:12.219Z,139.57
2022-08-05T01:34:10.261Z,158.57
2022-08-05T01:36:54.882Z,143.25
2022-08-05T01:39:36.150Z,160.82
2022-08-05T01:42:15.276Z,183.85
2022-08-05T01:44:45.660Z,188.52
2022-08-05T01:47:22.847Z,191.30
2022-08-05T01:50:01.763Z,190.13
2022-08-05T01:52:32.448Z,154.48
2022-08-05T01:55:04.534Z,193.88
2022-08-05T01:58:10.983Z,156.02
2022-08-05T02:00:30.653Z,171.52
2022-08-05T02:03:34.086Z,182.52
2022-08-05T02:06:24.042Z,157.85
2022-08-05T02:08:57.912Z,151.65
2022-08-05T02:11:33.976Z,158.43
2022-08-05T02:14:21.299Z,187.63
2022-08-05T02:16:54.873Z,191.45
2022-08-05T02:19:28.027Z,173.50
2022-08-05T02:22:25.503Z,159.63
2022-08-05T02:25:00.191Z,170.63
2022-08-05T02:27:30.116Z,173.57
2022-08-05T02:30:19.538Z,154.35
2022-08-05T02:35:28.079Z,136.15
2022-08-05T02:38:02.381Z,131.38
2022-08-05T02:40:30.872Z,141.18
2022-08-05T02:42:59.897Z,146.05
2022-08-05T02:45:28.711Z,153.30
2022-08-05T02:48:17.462Z,147.05
2022-08-05T02:50:47.463Z,141.77
2022-08-05T02:53:18.897Z,146.35
2022-08-05T02:55:54.796Z,169.38
2022-08-05T02:58:27.416Z,150.65
2022-08-05T03:00:57.006Z,158.38
2022-08-05T03:03:24.858Z,157.07
2022-08-05T03:06:55.446Z,161.95
2022-08-05T03:08:42.425Z,136.85
2022-08-05T03:11:56.127Z,149.27
2022-08-05T03:14:13.616Z,138.52
2022-08-05T03:16:40.927Z,147.88
2022-08-05T03:19:16.849Z,149.55
2022-08-05T03:21:48.702Z,152.82
2022-08-05T03:24:27.582Z,144.35
2022-08-05T03:29:45.520Z,116.47
2022-08-05T03:32:14.386Z,134.68
2022-08-05T03:34:51.197Z,167.93
2022-08-05T03:37:19.804Z,152.60
2022-08-05T03:40:01.479Z,157.85
2022-08-05T03:42:31.973Z,162.65
2022-08-05T03:47:30.423Z,119.85
2022-08-05T03:50:02.528Z,148.77
2022-08-05T03:52:48.929Z,149.00
2022-08-05T03:56:05.685Z,148.13
2022-08-05T03:58:21.935Z,138.95
2022-08-05T04:01:00.027Z,136.20
2022-08-05T04:03:29.456Z,154.52
2022-08-05T04:05:59.237Z,154.80
2022-08-05T04:08:34.982Z,150.38
2022-08-05T04:11:08.621Z,136.38
2022-08-05T04:13:50.525Z,150.23
2022-08-05T04:16:24.266Z,160.90
2022-08-05T04:18:53.892Z,144.30
2022-08-05T04:22:08.641Z,154.13
2022-08-05T04:24:18.921Z,131.02
2022-08-05T04:26:50.097Z,140.52
2022-08-05T04:29:17.256Z,154.60
2022-08-05T04:31:44.471Z,159.55
2022-08-05T04:34:31.508Z,149.85
2022-08-05T04:37:00.863Z,163.57
2022-08-05T04:39:31.334Z,139.63
2022-08-05T04:41:59.317Z,143.25
2022-08-05T04:44:29.944Z,150.10
2022-08-05T04:47:08.766Z,147.55
2022-08-05T04:50:01.588Z,138.57
2022-08-05T04:52:27.762Z,153.60
2022-08-05T04:54:57.169Z,148.68
2022-08-05T04:57:29.271Z,145.17
2022-08-05T04:59:58.552Z,140.55
2022-08-05T05:02:37.196Z,147.18
2022-08-05T05:05:16.780Z,130.68
2022-08-05T05:08:01.169Z,131.32
2022-08-05T05:10:33.416Z,145.50
2022-08-05T05:13:04.032Z,138.57
2022-08-05T05:15:57.365Z,136.27
2022-08-05T05:18:31.224Z,141.98
2022-08-05T05:21:02.059Z,136.95
2022-08-05T05:23:39.439Z,152.48
2022-08-05T05:26:17.441Z,133.00
2022-08-05T05:28:45.031Z,149.65
2022-08-05T05:31:12.828Z,148.32
2022-08-05T05:33:57.038Z,152.90
2022-08-05T05:36:28.546Z,140.73
2022-08-05T05:38:57.326Z,150.48
2022-08-05T05:41:24.775Z,140.43
2022-08-05T05:43:58.272Z,151.77
2022-08-05T05:46:27.474Z,143.07
2022-08-05T05:48:54.554Z,145.52
2022-08-05T05:51:25.976Z,152.43
2022-08-05T05:53:58.962Z,148.93
2022-08-05T05:56:32.486Z,146.52
2022-08-05T05:59:05.309Z,140.70
2022-08-05T06:01:37.092Z,136.40
2022-08-05T06:04:12.046Z,135.45
2022-08-05T06:06:47.767Z,140.23
2022-08-05T06:09:24.693Z,145.18
2022-08-05T06:11:59.404Z,142.50
2022-08-05T06:14:29.014Z,152.00
2022-08-05T06:16:56.923Z,153.25
2022-08-05T06:19:34.176Z,143.25
2022-08-05T06:22:06.484Z,145.57
2022-08-05T06:24:42.216Z,148.80
2022-08-05T06:28:11.135Z,147.70
2022-08-05T06:30:16.821Z,136.82
2022-08-05T06:32:47.134Z,144.45
2022-08-05T06:35:15.541Z,153.73
2022-08-05T06:37:57.686Z,153.65
2022-08-05T06:40:27.683Z,145.15
2022-08-05T06:42:55.293Z,151.75
2022-08-05T06:45:44.798Z,154.25
2022-08-05T06:48:36.685Z,148.90
2022-08-05T06:50:57.648Z,153.02
2022-08-05T06:53:28.310Z,164.80
2022-08-05T06:56:00.342Z,168.75
2022-08-05T06:58:34.858Z,157.45
2022-08-05T07:01:06.159Z,167.27
2022-08-05T07:03:34.401Z,169.05
2022-08-05T07:06:06.153Z,178.30
2022-08-05T07:08:47.467Z,185.82
2022-08-05T07:11:22.122Z,162.90
2022-08-05T07:14:15.588Z,190.88
2022-08-05T07:17:59.875Z,163.25
2022-08-05T07:22:29.171Z,156.73
2022-08-05T07:25:23.450Z,161.65
2022-08-05T07:27:58.123Z,150.50
2022-08-05T07:30:38.922Z,144.98
2022-08-05T07:33:10.572Z,159.35
2022-08-05T07:36:04.593Z,140.98
2022-08-05T07:38:42.588Z,152.30
2022-08-05T07:42:13.453Z,152.05
2022-08-05T07:44:18.701Z,140.32
2022-08-05T07:49:18.758Z,137.10
2022-08-05T07:51:53.479Z,138.85
2022-08-05T07:54:30.630Z,133.02
2022-08-05T07:57:16.905Z,133.98
2022-08-05T07:59:48.790Z,126.30
2022-08-05T08:02:17.900Z,129.07
2022-08-05T08:04:48.420Z,116.15
2022-08-05T08:07:23.048Z,123.95
2022-08-05T08:09:52.521Z,15.85
2022-08-05T08:12:35.611Z,2.88
2022-08-05T08:15:09.665Z,11.05
2022-08-05T08:17:46.064Z,12.77
2022-08-05T08:20:44.542Z,8.95
2022-08-05T08:23:03.848Z,2.80
2022-08-05T08:25:59.206Z,5.22
2022-08-05T08:28:36.716Z,3.88
2022-08-05T08:31:07.746Z,4.72
2022-08-05T08:33:37.638Z,4.93
2022-08-05T08:38:55.560Z,4.55
2022-08-05T08:41:26.373Z,9.40
2022-08-05T08:45:23.884Z,10.32
2022-08-05T08:47:04.111Z,12.95
2022-08-05T08:50:05.937Z,7.50
2022-08-05T08:52:54.162Z,4.40
2022-08-05T08:55:32.121Z,7.30
2022-08-05T08:58:12.981Z,4.80
2022-08-05T09:00:42.499Z,4.72
2022-08-05T09:03:11.537Z,7.00
2022-08-05T09:06:07.516Z,17.40
2022-08-05T09:08:30.198Z,12.60
2022-08-05T09:10:58.494Z,9.77
2022-08-05T09:13:31.663Z,14.93
2022-08-05T09:16:14.640Z,13.63
2022-08-05T09:18:44.900Z,14.27
2022-08-05T09:22:17.532Z,28.30
2022-08-05T09:24:10.173Z,21.48
2022-08-05T09:26:37.498Z,21.63
2022-08-05T09:29:08.756Z,49.67
2022-08-05T09:32:39.896Z,46.45
2022-08-05T09:34:23.561Z,65.07
2022-08-05T09:36:54.366Z,47.72
2022-08-05T09:39:27.758Z,31.95
2022-08-05T09:42:11.320Z,14.88
2022-08-05T09:44:44.718Z,12.18
2022-08-05T09:47:23.675Z,10.15
2022-08-05T09:50:02.421Z,8.35
2022-08-05T09:52:33.661Z,6.47
2022-08-05T09:55:57.572Z,6.20
2022-08-05T09:57:59.874Z,6.25
2022-08-05T10:00:27.829Z,7.28
2022-08-05T10:02:59.009Z,8.45
2022-08-05T10:05:32.919Z,14.35
2022-08-05T10:08:35.703Z,13.77
2022-08-05T10:10:54.253Z,56.70
2022-08-05T10:13:45.754Z,45.67
2022-08-05T10:16:32.323Z,46.17
2022-08-05T10:19:09.399Z,33.72
2022-08-05T10:21:40.287Z,35.00
2022-08-05T10:24:15.131Z,47.70
2022-08-05T10:26:48.983Z,51.22
2022-08-05T10:29:24.205Z,28.45
2022-08-05T10:32:53.047Z,13.97
2022-08-05T10:35:01.131Z,14.52
2022-08-05T10:37:37.155Z,27.42
2022-08-05T10:40:45.076Z,41.45
2022-08-05T10:43:23.258Z,19.00
2022-08-05T10:46:06.080Z,10.82
2022-08-05T10:48:56.656Z,13.43
2022-08-05T10:51:59.914Z,14.07
2022-08-05T10:55:04.772Z,14.68
2022-08-05T10:57:33.814Z,14.60
2022-08-05T11:00:20.446Z,16.67
2022-08-05T11:03:23.683Z,22.27
2022-08-05T11:06:15.473Z,17.75
2022-08-05T11:09:32.124Z,26.58
2022-08-05T11:12:42.115Z,17.63
2022-08-05T11:15:21.309Z,20.27
2022-08-05T11:18:00.386Z,21.42
2022-08-05T11:20:41.651Z,26.77
2022-08-05T11:24:02.338Z,27.15
2022-08-05T11:26:31.967Z,25.30
2022-08-05T11:29:11.692Z,27.38
2022-08-05T11:31:58.871Z,81.00
2022-08-05T11:34:40.040Z,57.83
2022-08-05T11:38:28.778Z,25.40
2022-08-05T11:41:35.021Z,25.45
2022-08-05T11:44:04.623Z,32.83
2022-08-05T11:46:58.287Z,35.60
2022-08-05T11:49:37.768Z,50.80
2022-08-05T11:52:11.224Z,6.70
2022-08-05T11:54:41.407Z,6.75
2022-08-05T11:57:24.828Z,13.30
2022-08-05T11:59:53.837Z,18.77
2022-08-05T12:02:32.025Z,17.38
2022-08-05T12:05:07.662Z,34.85
2022-08-05T12:08:08.337Z,20.23
2022-08-05T12:10:43.567Z,17.70
2022-08-05T12:13:16.766Z,23.25
2022-08-05T12:15:50.233Z,17.65
2022-08-05T12:18:18.902Z,15.43
2022-08-05T12:20:47.753Z,29.30
2022-08-05T12:23:14.795Z,54.42
2022-08-05T12:25:56.930Z,72.38
2022-08-05T12:28:37.891Z,54.58
2022-08-05T12:31:05.814Z,162.30
2022-08-05T12:33:36.545Z,101.03
2022-08-05T12:36:08.600Z,173.40
2022-08-05T12:38:41.118Z,74.47
2022-08-05T12:41:13.450Z,48.22
2022-08-05T12:43:58.845Z,33.50
2022-08-05T12:46:29.211Z,91.40
2022-08-05T12:49:13.442Z,186.07
2022-08-05T12:52:12.081Z,395.38
2022-08-05T12:54:51.274Z,556.38
2022-08-05T12:57:19.661Z,422.55
2022-08-05T13:01:56.932Z,579.92
2022-08-05T13:02:42.513Z,597.35
2022-08-05T13:05:15.079Z,517.97
2022-08-05T13:08:00.058Z,696.05
2022-08-05T13:10:31.622Z,748.40
2022-08-05T13:12:58.866Z,767.38
2022-08-05T13:15:41.096Z,709.38
2022-08-05T13:18:10.890Z,589.60
2022-08-05T13:20:46.261Z,500.30
2022-08-05T13:23:13.544Z,192.10
2022-08-05T13:25:58.796Z,286.63
2022-08-05T13:28:29.085Z,571.83
2022-08-05T13:30:59.465Z,765.35
2022-08-05T13:34:21.797Z,768.58
2022-08-05T13:36:17.525Z,668.53
2022-08-05T13:38:44.568Z,509.92
2022-08-05T13:41:19.122Z,436.52
2022-08-05T13:43:54.797Z,318.60
2022-08-05T13:46:37.907Z,253.70
2022-08-05T13:49:11.870Z,182.63
2022-08-05T13:51:46.286Z,175.05
2022-08-05T13:54:15.950Z,262.77
2022-08-05T13:56:45.237Z,461.57
2022-08-05T13:59:27.466Z,689.45
2022-08-05T14:02:00.383Z,816.42
2022-08-05T14:04:55.466Z,898.78
2022-08-05T14:07:59.919Z,953.30
2022-08-05T14:10:27.996Z,920.38
2022-08-05T14:12:57.436Z,847.90
2022-08-05T14:16:08.684Z,854.45
2022-08-05T14:18:17.843Z,780.67
2022-08-05T14:20:48.026Z,818.05
2022-08-05T14:23:23.418Z,752.53
2022-08-05T14:25:58.230Z,704.67
2022-08-05T14:28:28.268Z,638.42
2022-08-05T14:30:56.653Z,600.85
2022-08-05T14:33:24.286Z,459.48
2022-08-05T14:35:53.986Z,410.13
2022-08-05T14:38:33.212Z,484.27
2022-08-05T14:41:07.736Z,412.20
2022-08-05T14:43:53.916Z,442.95
2022-08-05T14:46:29.150Z,396.17
2022-08-05T14:48:59.565Z,410.98
2022-08-05T14:51:31.224Z,408.50
2022-08-05T14:54:26.656Z,399.70
2022-08-05T14:56:48.688Z,363.33
2022-08-05T14:59:18.452Z,404.10
2022-08-05T15:01:49.781Z,393.40
2022-08-05T15:04:20.596Z,359.70
2022-08-05T15:06:50.490Z,306.50
2022-08-05T15:09:52.562Z,291.58
2022-08-05T15:12:16.350Z,274.23
2022-08-05T15:14:49.994Z,246.02
2022-08-05T15:17:45.738Z,239.05
2022-08-05T15:20:09.752Z,241.20
2022-08-05T15:22:44.735Z,250.15
2022-08-05T15:25:13.978Z,229.27
2022-08-05T15:27:42.875Z,225.50
2022-08-05T15:30:18.933Z,228.07
2022-08-05T15:32:47.212Z,221.27
2022-08-05T15:35:14.734Z,226.25
2022-08-05T15:38:32.667Z,211.65
2022-08-05T15:40:59.389Z,207.73
2022-08-05T15:43:20.644Z,192.93
2022-08-05T15:46:00.131Z,183.70
2022-08-05T15:48:29.952Z,186.82
2022-08-05T15:50:57.481Z,173.50
2022-08-05T15:53:26.443Z,159.15
2022-08-05T15:56:03.704Z,144.65
2022-08-05T15:58:36.864Z,103.63
2022-08-05T16:01:17.407Z,99.00
2022-08-05T16:03:50.544Z,116.28
2022-08-05T16:06:20.246Z,70.70
2022-08-05T16:08:50.847Z,63.80
2022-08-05T16:11:18.650Z,87.93
2022-08-05T16:13:48.554Z,77.25
2022-08-05T16:16:21.304Z,87.60
2022-08-05T16:18:53.105Z,127.13
2022-08-05T16:22:00.618Z,91.70
2022-08-05T16:24:12.861Z,121.70
2022-08-05T16:26:56.587Z,115.90
2022-08-05T16:29:24.878Z,138.15
2022-08-05T16:31:56.715Z,134.05
2022-08-05T16:34:26.463Z,128.60
2022-08-05T16:36:54.314Z,116.80
2022-08-05T16:39:22.031Z,118.47
2022-08-05T16:42:14.140Z,95.18
2022-08-05T16:44:44.239Z,97.82
2022-08-05T16:47:28.992Z,83.05
2022-08-05T16:49:58.964Z,90.95
2022-08-05T16:52:32.673Z,91.15
2022-08-05T16:55:00.946Z,97.38
2022-08-05T16:57:42.969Z,87.53
2022-08-05T17:00:26.251Z,77.72
2022-08-05T17:03:09.334Z,76.75
2022-08-05T17:05:53.362Z,69.80
2022-08-05T17:08:36.001Z,65.22
2022-08-05T17:11:12.679Z,68.65
2022-08-05T17:13:45.572Z,68.88
2022-08-05T17:16:32.822Z,46.33
2022-08-05T17:19:00.680Z,33.25
2022-08-05T17:21:36.322Z,32.20
2022-08-05T17:24:18.702Z,43.20
2022-08-05T17:26:57.219Z,31.00
2022-08-05T17:29:33.547Z,26.67
2022-08-05T17:32:08.434Z,34.83
2022-08-05T17:34:38.980Z,28.42
2022-08-05T17:37:16.934Z,27.77
2022-08-05T17:39:55.830Z,27.48
2022-08-05T17:42:28.346Z,48.75
2022-08-05T17:44:56.962Z,29.98
2022-08-05T17:47:24.044Z,47.58
2022-08-05T17:50:04.281Z,64.35
2022-08-05T17:52:52.763Z,56.17
2022-08-05T17:55:22.710Z,51.38
2022-08-05T17:57:54.769Z,71.15
2022-08-05T18:00:22.178Z,61.03
2022-08-05T18:02:56.627Z,50.00
2022-08-05T18:05:28.137Z,75.60
2022-08-05T18:08:02.500Z,65.80
2022-08-05T18:10:32.294Z,90.43
2022-08-05T18:15:35.152Z,43.75
2022-08-05T18:18:11.170Z,58.10
2022-08-05T18:20:38.848Z,86.85
2022-08-05T18:23:11.907Z,99.32
2022-08-05T18:25:45.403Z,112.53
2022-08-05T18:28:16.088Z,90.55
2022-08-05T18:30:50.857Z,71.20
2022-08-05T18:33:22.564Z,83.63
2022-08-05T18:36:00.774Z,73.07
2022-08-05T18:38:35.934Z,100.88
2022-08-05T18:41:56.462Z,100.40
2022-08-05T18:43:52.833Z,91.32
2022-08-05T18:46:20.677Z,80.00
2022-08-05T18:48:52.248Z,91.63
2022-08-05T18:52:06.811Z,102.72
2022-08-05T18:54:27.612Z,102.78
2022-08-05T18:56:58.258Z,122.18
2022-08-05T18:59:43.523Z,91.93
2022-08-05T19:02:28.050Z,76.88
2022-08-05T19:05:02.656Z,114.07
2022-08-05T19:07:48.111Z,91.37
2022-08-05T19:10:26.661Z,85.68
2022-08-05T19:12:56.746Z,114.00
2022-08-05T19:15:57.626Z,99.80
2022-08-05T19:18:13.476Z,95.22
2022-08-05T19:20:48.987Z,120.28
2022-08-05T19:23:22.657Z,101.03
2022-08-05T19:26:03.225Z,118.00
2022-08-05T19:28:32.696Z,110.57
2022-08-05T19:31:00.899Z,119.55
2022-08-05T19:33:36.456Z,104.18
2022-08-05T19:36:07.251Z,96.47
2022-08-05T19:38:36.802Z,127.03
2022-08-05T19:41:08.981Z,136.05
2022-08-05T19:44:06.284Z,152.30
2022-08-05T19:46:30.948Z,105.13
2022-08-05T19:49:03.524Z,91.25
2022-08-05T19:52:08.294Z,129.88
2022-08-05T19:54:31.557Z,154.35
2022-08-05T19:57:09.660Z,114.40
2022-08-05T19:59:56.225Z,133.07
2022-08-05T20:02:27.710Z,115.63
2022-08-05T20:04:58.726Z,142.13
2022-08-05T20:07:46.689Z,158.73
2022-08-05T20:10:16.113Z,133.98
2022-08-05T20:12:46.270Z,117.43
2022-08-05T20:15:23.268Z,123.82
2022-08-05T20:18:10.368Z,111.55
2022-08-05T20:20:56.799Z,107.00
2022-08-05T20:23:39.652Z,120.45
2022-08-05T20:26:16.536Z,132.63
2022-08-05T20:28:50.823Z,128.48
2022-08-05T20:31:21.628Z,107.90
2022-08-05T20:33:55.780Z,135.85
2022-08-05T20:36:24.241Z,122.95
2022-08-05T20:38:53.703Z,123.38
2022-08-05T20:41:27.309Z,119.60
2022-08-05T20:44:17.577Z,125.82
2022-08-05T20:46:48.161Z,120.38
2022-08-05T20:49:18.404Z,123.95
2022-08-05T20:51:53.493Z,138.75
2022-08-05T20:54:21.098Z,126.20
2022-08-05T20:56:48.866Z,127.75
2022-08-05T20:59:26.218Z,127.60
2022-08-05T21:01:57.204Z,131.52
2022-08-05T21:04:27.092Z,125.13
2022-08-05T21:06:54.981Z,124.30
2022-08-05T21:09:23.132Z,119.78
2022-08-05T21:12:10.655Z,120.75
2022-08-05T21:14:38.672Z,130.77
2022-08-05T21:17:06.343Z,117.72
2022-08-05T21:19:46.466Z,147.38
2022-08-05T21:22:18.355Z,118.00
2022-08-05T21:24:48.976Z,130.23
2022-08-05T21:27:25.327Z,113.32
2022-08-05T21:29:58.227Z,125.03
2022-08-05T21:32:29.184Z,113.93
2022-08-05T21:35:08.958Z,105.90
2022-08-05T21:37:53.129Z,127.93
2022-08-05T21:40:24.571Z,109.57
2022-08-05T21:42:52.989Z,117.88
2022-08-05T21:45:24.952Z,123.60
2022-08-05T21:48:11.043Z,114.43
2022-08-05T21:50:42.050Z,101.20
2022-08-05T21:53:20.296Z,107.47
2022-08-05T21:56:05.667Z,123.20
2022-08-05T21:58:34.482Z,105.50
2022-08-05T22:01:05.740Z,126.75
2022-08-05T22:03:52.601Z,135.75
2022-08-05T22:06:23.075Z,123.30
2022-08-05T22:09:02.119Z,113.38
2022-08-05T22:11:41.526Z,106.53
2022-08-05T22:14:33.201Z,130.48
2022-08-05T22:17:03.894Z,125.22
2022-08-05T22:20:01.265Z,116.00
2022-08-05T22:25:27.816Z,62.88
2022-08-05T22:28:11.754Z,77.10
2022-08-05T22:30:55.770Z,86.35
2022-08-05T22:33:57.134Z,81.28
2022-08-05T22:36:14.569Z,98.47
2022-08-05T22:38:43.854Z,82.60
2022-08-05T22:41:16.141Z,96.38
2022-08-05T22:44:03.602Z,86.70
2022-08-05T22:46:31.419Z,85.75
2022-08-05T22:48:59.761Z,110.65
2022-08-05T22:52:06.607Z,99.75
2022-08-05T22:54:14.401Z,86.03
2022-08-05T22:56:41.498Z,96.30
2022-08-05T22:59:43.693Z,113.93
2022-08-05T23:02:05.625Z,100.57
2022-08-05T23:04:35.193Z,96.82
2022-08-05T23:07:03.133Z,99.88
2022-08-05T23:09:57.307Z,97.55
2022-08-05T23:12:20.234Z,95.32
2022-08-05T23:14:51.223Z,112.32
2022-08-05T23:17:24.239Z,101.18
2022-08-05T23:20:02.420Z,95.68
2022-08-05T23:22:30.736Z,97.67
2022-08-05T23:24:58.251Z,89.05
2022-08-05T23:27:28.935Z,98.97
2022-08-05T23:30:10.858Z,92.60
2022-08-05T23:32:38.093Z,102.90
2022-08-05T23:35:12.753Z,87.32
2022-08-05T23:37:39.870Z,89.78
2022-08-05T23:40:09.591Z,92.10
2022-08-05T23:42:38.943Z,102.07
2022-08-05T23:45:13.988Z,100.10
2022-08-05T23:47:48.400Z,111.18
2022-08-05T23:50:20.256Z,97.07
2022-08-05T23:52:50.135Z,99.97
2022-08-05T23:55:19.189Z,104.35
2022-08-05T23:57:51.071Z,98.80
